sensor_id;sensor_type;location;lat;lon;timestamp;P1;durP1;ratioP1;P2;durP2;ratioP2
44438;SDS011;30145;48.874;10.186;2022-11-18T00:01:09;1.77;;;0.47;;
44438;SDS011;30145;48.874;10.186;2022-11-18T00:03:38;2.37;;;0.70;;
44438;SDS011;30145;48.874;10.186;2022-11-18T00:06:06;0.77;;;0.60;;
44438;SDS011;30145;48.874;10.186;2022-11-18T00:08:35;0.80;;;0.60;;
44438;SDS011;30145;48.874;10.186;2022-11-18T00:11:06;1.33;;;0.90;;
44438;SDS011;30145;48.874;10.186;2022-11-18T00:13:35;2.40;;;0.60;;
44438;SDS011;30145;48.874;10.186;2022-11-18T00:16:22;0.83;;;0.50;;
44438;SDS011;30145;48.874;10.186;2022-11-18T00:18:49;1.77;;;0.50;;
44438;SDS011;30145;48.874;10.186;2022-11-18T00:21:17;0.50;;;0.50;;
44438;SDS011;30145;48.874;10.186;2022-11-18T00:23:44;0.50;;;0.50;;
44438;SDS011;30145;48.874;10.186;2022-11-18T00:26:12;0.70;;;0.40;;
44438;SDS011;30145;48.874;10.186;2022-11-18T00:28:40;0.93;;;0.40;;
44438;SDS011;30145;48.874;10.186;2022-11-18T00:31:11;0.60;;;0.60;;
44438;SDS011;30145;48.874;10.186;2022-11-18T00:33:39;0.50;;;0.43;;
44438;SDS011;30145;48.874;10.186;2022-11-18T00:36:07;0.63;;;0.50;;
44438;SDS011;30145;48.874;10.186;2022-11-18T00:38:36;0.40;;;0.40;;
44438;SDS011;30145;48.874;10.186;2022-11-18T00:43:31;0.40;;;0.40;;
44438;SDS011;30145;48.874;10.186;2022-11-18T00:45:59;0.50;;;0.50;;
44438;SDS011;30145;48.874;10.186;2022-11-18T00:48:27;0.60;;;0.50;;
44438;SDS011;30145;48.874;10.186;2022-11-18T00:50:55;0.80;;;0.50;;
44438;SDS011;30145;48.874;10.186;2022-11-18T00:53:23;0.60;;;0.40;;
44438;SDS011;30145;48.874;10.186;2022-11-18T00:55:52;0.47;;;0.47;;
44438;SDS011;30145;48.874;10.186;2022-11-18T00:58:19;0.80;;;0.40;;
44438;SDS011;30145;48.874;10.186;2022-11-18T01:00:49;0.93;;;0.40;;
44438;SDS011;30145;48.874;10.186;2022-11-18T01:03:17;1.33;;;0.50;;
44438;SDS011;30145;48.874;10.186;2022-11-18T01:05:45;0.67;;;0.40;;
44438;SDS011;30145;48.874;10.186;2022-11-18T01:08:13;0.47;;;0.47;;
44438;SDS011;30145;48.874;10.186;2022-11-18T01:10:40;0.40;;;0.40;;
44438;SDS011;30145;48.874;10.186;2022-11-18T01:13:10;1.00;;;0.60;;
44438;SDS011;30145;48.874;10.186;2022-11-18T01:15:50;0.50;;;0.50;;
44438;SDS011;30145;48.874;10.186;2022-11-18T01:18:22;0.70;;;0.50;;
44438;SDS011;30145;48.874;10.186;2022-11-18T01:20:51;1.73;;;1.00;;
44438;SDS011;30145;48.874;10.186;2022-11-18T01:23:19;0.83;;;0.60;;
44438;SDS011;30145;48.874;10.186;2022-11-18T01:25:47;1.40;;;0.50;;
44438;SDS011;30145;48.874;10.186;2022-11-18T01:28:15;0.90;;;0.60;;
44438;SDS011;30145;48.874;10.186;2022-11-18T01:30:47;1.27;;;0.60;;
44438;SDS011;30145;48.874;10.186;2022-11-18T01:33:14;1.33;;;0.70;;
44438;SDS011;30145;48.874;10.186;2022-11-18T01:35:42;0.30;;;0.30;;
44438;SDS011;30145;48.874;10.186;2022-11-18T01:38:10;0.37;;;0.37;;
44438;SDS011;30145;48.874;10.186;2022-11-18T01:40:39;0.43;;;0.40;;
44438;SDS011;30145;48.874;10.186;2022-11-18T01:43:11;0.90;;;0.40;;
44438;SDS011;30145;48.874;10.186;2022-11-18T01:45:39;0.40;;;0.40;;
44438;SDS011;30145;48.874;10.186;2022-11-18T01:48:27;0.40;;;0.40;;
44438;SDS011;30145;48.874;10.186;2022-11-18T01:51:01;0.50;;;0.40;;
44438;SDS011;30145;48.874;10.186;2022-11-18T01:53:33;1.03;;;0.50;;
44438;SDS011;30145;48.874;10.186;2022-11-18T01:56:04;1.53;;;0.30;;
44438;SDS011;30145;48.874;10.186;2022-11-18T01:59:04;0.50;;;0.40;;
44438;SDS011;30145;48.874;10.186;2022-11-18T02:01:32;0.80;;;0.50;;
44438;SDS011;30145;48.874;10.186;2022-11-18T02:03:59;0.40;;;0.40;;
44438;SDS011;30145;48.874;10.186;2022-11-18T02:06:26;0.63;;;0.40;;
44438;SDS011;30145;48.874;10.186;2022-11-18T02:08:53;0.40;;;0.30;;
44438;SDS011;30145;48.874;10.186;2022-11-18T02:11:20;0.40;;;0.30;;
44438;SDS011;30145;48.874;10.186;2022-11-18T02:14:06;0.67;;;0.57;;
44438;SDS011;30145;48.874;10.186;2022-11-18T02:19:14;0.77;;;0.50;;
44438;SDS011;30145;48.874;10.186;2022-11-18T02:24:50;0.50;;;0.50;;
44438;SDS011;30145;48.874;10.186;2022-11-18T02:27:43;0.50;;;0.40;;
44438;SDS011;30145;48.874;10.186;2022-11-18T02:30:33;1.43;;;0.60;;
44438;SDS011;30145;48.874;10.186;2022-11-18T02:33:08;0.97;;;0.60;;
44438;SDS011;30145;48.874;10.186;2022-11-18T02:38:14;1.10;;;0.80;;
44438;SDS011;30145;48.874;10.186;2022-11-18T02:41:27;1.67;;;0.90;;
44438;SDS011;30145;48.874;10.186;2022-11-18T02:43:37;0.60;;;0.60;;
44438;SDS011;30145;48.874;10.186;2022-11-18T02:46:08;0.60;;;0.60;;
44438;SDS011;30145;48.874;10.186;2022-11-18T02:48:38;0.87;;;0.60;;
44438;SDS011;30145;48.874;10.186;2022-11-18T02:51:07;0.83;;;0.50;;
44438;SDS011;30145;48.874;10.186;2022-11-18T02:53:36;0.57;;;0.57;;
44438;SDS011;30145;48.874;10.186;2022-11-18T02:56:04;2.00;;;0.70;;
44438;SDS011;30145;48.874;10.186;2022-11-18T02:58:32;0.50;;;0.50;;
44438;SDS011;30145;48.874;10.186;2022-11-18T03:01:00;0.60;;;0.60;;
44438;SDS011;30145;48.874;10.186;2022-11-18T03:03:29;0.70;;;0.70;;
44438;SDS011;30145;48.874;10.186;2022-11-18T03:08:35;0.67;;;0.60;;
44438;SDS011;30145;48.874;10.186;2022-11-18T03:11:24;0.63;;;0.60;;
44438;SDS011;30145;48.874;10.186;2022-11-18T03:16:47;1.43;;;0.83;;
44438;SDS011;30145;48.874;10.186;2022-11-18T03:19:22;10.77;;;6.63;;
44438;SDS011;30145;48.874;10.186;2022-11-18T03:22:25;4.33;;;2.83;;
44438;SDS011;30145;48.874;10.186;2022-11-18T03:25:30;1.30;;;0.87;;
44438;SDS011;30145;48.874;10.186;2022-11-18T03:27:52;0.70;;;0.70;;
44438;SDS011;30145;48.874;10.186;2022-11-18T03:30:26;1.00;;;0.80;;
44438;SDS011;30145;48.874;10.186;2022-11-18T03:32:57;0.80;;;0.70;;
44438;SDS011;30145;48.874;10.186;2022-11-18T03:35:28;0.93;;;0.80;;
44438;SDS011;30145;48.874;10.186;2022-11-18T03:37:59;1.00;;;0.90;;
44438;SDS011;30145;48.874;10.186;2022-11-18T03:40:31;1.17;;;0.70;;
44438;SDS011;30145;48.874;10.186;2022-11-18T03:43:01;1.30;;;1.00;;
44438;SDS011;30145;48.874;10.186;2022-11-18T03:45:35;1.23;;;1.00;;
44438;SDS011;30145;48.874;10.186;2022-11-18T03:48:10;1.97;;;1.20;;
44438;SDS011;30145;48.874;10.186;2022-11-18T03:50:48;1.50;;;0.80;;
44438;SDS011;30145;48.874;10.186;2022-11-18T03:53:17;1.27;;;0.80;;
44438;SDS011;30145;48.874;10.186;2022-11-18T03:55:46;1.20;;;0.93;;
44438;SDS011;30145;48.874;10.186;2022-11-18T03:58:19;1.20;;;0.83;;
44438;SDS011;30145;48.874;10.186;2022-11-18T04:00:51;1.00;;;0.90;;
44438;SDS011;30145;48.874;10.186;2022-11-18T04:03:20;0.77;;;0.77;;
44438;SDS011;30145;48.874;10.186;2022-11-18T04:05:47;1.07;;;0.97;;
44438;SDS011;30145;48.874;10.186;2022-11-18T04:08:21;1.50;;;1.00;;
44438;SDS011;30145;48.874;10.186;2022-11-18T04:14:09;0.90;;;0.80;;
44438;SDS011;30145;48.874;10.186;2022-11-18T04:16:40;1.10;;;1.00;;
44438;SDS011;30145;48.874;10.186;2022-11-18T04:19:08;1.10;;;0.90;;
44438;SDS011;30145;48.874;10.186;2022-11-18T04:21:35;0.77;;;0.77;;
44438;SDS011;30145;48.874;10.186;2022-11-18T04:24:02;0.80;;;0.80;;
44438;SDS011;30145;48.874;10.186;2022-11-18T04:26:29;0.90;;;0.90;;
44438;SDS011;30145;48.874;10.186;2022-11-18T04:28:57;1.17;;;1.07;;
44438;SDS011;30145;48.874;10.186;2022-11-18T04:31:24;1.57;;;1.17;;
44438;SDS011;30145;48.874;10.186;2022-11-18T04:33:51;1.33;;;1.20;;
44438;SDS011;30145;48.874;10.186;2022-11-18T04:36:18;1.20;;;1.10;;
44438;SDS011;30145;48.874;10.186;2022-11-18T04:38:45;1.93;;;1.23;;
44438;SDS011;30145;48.874;10.186;2022-11-18T04:41:13;1.33;;;1.23;;
44438;SDS011;30145;48.874;10.186;2022-11-18T04:43:40;1.27;;;1.17;;
44438;SDS011;30145;48.874;10.186;2022-11-18T04:46:07;2.07;;;1.40;;
44438;SDS011;30145;48.874;10.186;2022-11-18T04:48:34;1.50;;;1.40;;
44438;SDS011;30145;48.874;10.186;2022-11-18T04:51:04;1.50;;;1.40;;
44438;SDS011;30145;48.874;10.186;2022-11-18T04:53:31;1.90;;;1.27;;
44438;SDS011;30145;48.874;10.186;2022-11-18T04:56:05;2.03;;;1.20;;
44438;SDS011;30145;48.874;10.186;2022-11-18T04:58:35;2.07;;;1.23;;
44438;SDS011;30145;48.874;10.186;2022-11-18T05:01:02;2.37;;;2.17;;
44438;SDS011;30145;48.874;10.186;2022-11-18T05:03:29;1.17;;;1.00;;
44438;SDS011;30145;48.874;10.186;2022-11-18T05:05:59;1.23;;;1.00;;
44438;SDS011;30145;48.874;10.186;2022-11-18T05:08:27;1.27;;;1.17;;
44438;SDS011;30145;48.874;10.186;2022-11-18T05:10:54;1.37;;;1.20;;
44438;SDS011;30145;48.874;10.186;2022-11-18T05:13:41;1.53;;;1.10;;
44438;SDS011;30145;48.874;10.186;2022-11-18T05:16:08;4.50;;;3.40;;
44438;SDS011;30145;48.874;10.186;2022-11-18T05:18:35;0.60;;;0.60;;
44438;SDS011;30145;48.874;10.186;2022-11-18T05:21:05;0.67;;;0.67;;
44438;SDS011;30145;48.874;10.186;2022-11-18T05:23:32;0.60;;;0.60;;
44438;SDS011;30145;48.874;10.186;2022-11-18T05:26:03;0.90;;;0.50;;
44438;SDS011;30145;48.874;10.186;2022-11-18T05:28:31;0.60;;;0.60;;
44438;SDS011;30145;48.874;10.186;2022-11-18T05:30:58;1.70;;;1.07;;
44438;SDS011;30145;48.874;10.186;2022-11-18T05:33:25;0.60;;;0.60;;
44438;SDS011;30145;48.874;10.186;2022-11-18T05:35:52;1.27;;;0.80;;
44438;SDS011;30145;48.874;10.186;2022-11-18T05:38:20;0.90;;;0.90;;
44438;SDS011;30145;48.874;10.186;2022-11-18T05:40:47;0.70;;;0.70;;
44438;SDS011;30145;48.874;10.186;2022-11-18T05:43:14;1.07;;;0.93;;
44438;SDS011;30145;48.874;10.186;2022-11-18T05:45:42;1.43;;;0.60;;
44438;SDS011;30145;48.874;10.186;2022-11-18T05:48:09;1.03;;;0.73;;
44438;SDS011;30145;48.874;10.186;2022-11-18T05:50:36;0.80;;;0.80;;
44438;SDS011;30145;48.874;10.186;2022-11-18T05:53:03;1.13;;;0.80;;
44438;SDS011;30145;48.874;10.186;2022-11-18T05:55:46;1.47;;;1.00;;
44438;SDS011;30145;48.874;10.186;2022-11-18T05:58:17;1.03;;;1.00;;
44438;SDS011;30145;48.874;10.186;2022-11-18T06:00:44;1.23;;;0.90;;
44438;SDS011;30145;48.874;10.186;2022-11-18T06:03:15;1.10;;;1.00;;
44438;SDS011;30145;48.874;10.186;2022-11-18T06:05:45;1.13;;;0.70;;
44438;SDS011;30145;48.874;10.186;2022-11-18T06:08:12;1.93;;;0.70;;
44438;SDS011;30145;48.874;10.186;2022-11-18T06:10:40;0.60;;;0.50;;
44438;SDS011;30145;48.874;10.186;2022-11-18T06:13:08;0.60;;;0.60;;
44438;SDS011;30145;48.874;10.186;2022-11-18T06:15:41;0.60;;;0.60;;
44438;SDS011;30145;48.874;10.186;2022-11-18T06:18:10;2.10;;;0.63;;
44438;SDS011;30145;48.874;10.186;2022-11-18T06:20:44;0.70;;;0.70;;
44438;SDS011;30145;48.874;10.186;2022-11-18T06:23:11;0.70;;;0.70;;
44438;SDS011;30145;48.874;10.186;2022-11-18T06:25:39;0.80;;;0.80;;
44438;SDS011;30145;48.874;10.186;2022-11-18T06:28:06;0.77;;;0.77;;
44438;SDS011;30145;48.874;10.186;2022-11-18T06:30:36;1.70;;;1.13;;
44438;SDS011;30145;48.874;10.186;2022-11-18T06:33:04;1.20;;;1.10;;
44438;SDS011;30145;48.874;10.186;2022-11-18T06:35:31;0.50;;;0.50;;
44438;SDS011;30145;48.874;10.186;2022-11-18T06:37:58;0.70;;;0.50;;
44438;SDS011;30145;48.874;10.186;2022-11-18T06:40:25;3.27;;;1.43;;
44438;SDS011;30145;48.874;10.186;2022-11-18T06:42:54;0.60;;;0.60;;
44438;SDS011;30145;48.874;10.186;2022-11-18T06:45:40;0.73;;;0.70;;
44438;SDS011;30145;48.874;10.186;2022-11-18T06:48:30;0.60;;;0.60;;
44438;SDS011;30145;48.874;10.186;2022-11-18T06:50:57;1.70;;;1.00;;
44438;SDS011;30145;48.874;10.186;2022-11-18T06:53:24;0.87;;;0.80;;
44438;SDS011;30145;48.874;10.186;2022-11-18T06:55:51;2.23;;;1.40;;
44438;SDS011;30145;48.874;10.186;2022-11-18T06:58:18;1.23;;;0.80;;
44438;SDS011;30145;48.874;10.186;2022-11-18T07:00:45;0.70;;;0.70;;
44438;SDS011;30145;48.874;10.186;2022-11-18T07:03:12;1.07;;;0.80;;
44438;SDS011;30145;48.874;10.186;2022-11-18T07:05:39;1.17;;;1.00;;
44438;SDS011;30145;48.874;10.186;2022-11-18T07:08:06;0.97;;;0.67;;
44438;SDS011;30145;48.874;10.186;2022-11-18T07:10:33;0.60;;;0.57;;
44438;SDS011;30145;48.874;10.186;2022-11-18T07:13:00;0.50;;;0.50;;
44438;SDS011;30145;48.874;10.186;2022-11-18T07:15:27;0.40;;;0.40;;
44438;SDS011;30145;48.874;10.186;2022-11-18T07:17:54;0.50;;;0.50;;
44438;SDS011;30145;48.874;10.186;2022-11-18T07:20:21;1.10;;;0.63;;
44438;SDS011;30145;48.874;10.186;2022-11-18T07:22:52;0.50;;;0.40;;
44438;SDS011;30145;48.874;10.186;2022-11-18T07:25:20;1.23;;;0.60;;
44438;SDS011;30145;48.874;10.186;2022-11-18T07:27:47;1.13;;;0.80;;
44438;SDS011;30145;48.874;10.186;2022-11-18T07:30:14;0.70;;;0.70;;
44438;SDS011;30145;48.874;10.186;2022-11-18T07:32:41;1.03;;;0.60;;
44438;SDS011;30145;48.874;10.186;2022-11-18T07:35:08;0.60;;;0.60;;
44438;SDS011;30145;48.874;10.186;2022-11-18T07:37:35;0.70;;;0.70;;
44438;SDS011;30145;48.874;10.186;2022-11-18T07:40:02;0.60;;;0.60;;
44438;SDS011;30145;48.874;10.186;2022-11-18T07:42:29;0.70;;;0.70;;
44438;SDS011;30145;48.874;10.186;2022-11-18T07:45:11;0.90;;;0.90;;
44438;SDS011;30145;48.874;10.186;2022-11-18T07:47:38;1.07;;;0.97;;
44438;SDS011;30145;48.874;10.186;2022-11-18T07:50:05;1.47;;;0.80;;
44438;SDS011;30145;48.874;10.186;2022-11-18T07:52:33;0.80;;;0.80;;
44438;SDS011;30145;48.874;10.186;2022-11-18T07:55:00;0.80;;;0.80;;
44438;SDS011;30145;48.874;10.186;2022-11-18T07:57:27;1.53;;;0.70;;
44438;SDS011;30145;48.874;10.186;2022-11-18T07:59:54;1.40;;;0.77;;
44438;SDS011;30145;48.874;10.186;2022-11-18T08:02:21;1.07;;;0.90;;
44438;SDS011;30145;48.874;10.186;2022-11-18T08:04:48;0.63;;;0.63;;
44438;SDS011;30145;48.874;10.186;2022-11-18T08:07:15;1.40;;;0.90;;
44438;SDS011;30145;48.874;10.186;2022-11-18T08:09:42;0.97;;;0.70;;
44438;SDS011;30145;48.874;10.186;2022-11-18T08:12:09;0.87;;;0.70;;
44438;SDS011;30145;48.874;10.186;2022-11-18T08:14:36;1.10;;;0.90;;
44438;SDS011;30145;48.874;10.186;2022-11-18T08:17:03;1.53;;;1.00;;
44438;SDS011;30145;48.874;10.186;2022-11-18T08:19:30;1.40;;;0.60;;
44438;SDS011;30145;48.874;10.186;2022-11-18T08:22:00;0.97;;;0.80;;
44438;SDS011;30145;48.874;10.186;2022-11-18T08:24:27;1.47;;;0.60;;
44438;SDS011;30145;48.874;10.186;2022-11-18T08:26:54;3.23;;;2.13;;
44438;SDS011;30145;48.874;10.186;2022-11-18T08:29:21;1.70;;;1.00;;
44438;SDS011;30145;48.874;10.186;2022-11-18T08:31:50;0.83;;;0.70;;
44438;SDS011;30145;48.874;10.186;2022-11-18T08:34:17;1.73;;;1.27;;
44438;SDS011;30145;48.874;10.186;2022-11-18T08:36:44;1.70;;;1.17;;
44438;SDS011;30145;48.874;10.186;2022-11-18T08:39:11;1.20;;;0.90;;
44438;SDS011;30145;48.874;10.186;2022-11-18T08:41:39;1.20;;;1.07;;
44438;SDS011;30145;48.874;10.186;2022-11-18T08:44:09;6.80;;;3.10;;
44438;SDS011;30145;48.874;10.186;2022-11-18T08:46:38;2.07;;;1.70;;
44438;SDS011;30145;48.874;10.186;2022-11-18T08:49:05;1.30;;;1.00;;
44438;SDS011;30145;48.874;10.186;2022-11-18T08:51:32;1.00;;;0.80;;
44438;SDS011;30145;48.874;10.186;2022-11-18T08:53:59;1.03;;;0.87;;
44438;SDS011;30145;48.874;10.186;2022-11-18T08:56:26;0.90;;;0.90;;
44438;SDS011;30145;48.874;10.186;2022-11-18T08:58:53;1.10;;;1.00;;
44438;SDS011;30145;48.874;10.186;2022-11-18T09:01:21;1.00;;;1.00;;
44438;SDS011;30145;48.874;10.186;2022-11-18T09:03:48;1.03;;;0.93;;
44438;SDS011;30145;48.874;10.186;2022-11-18T09:06:17;0.80;;;0.80;;
44438;SDS011;30145;48.874;10.186;2022-11-18T09:08:45;1.10;;;1.00;;
44438;SDS011;30145;48.874;10.186;2022-11-18T09:11:13;0.63;;;0.63;;
44438;SDS011;30145;48.874;10.186;2022-11-18T09:13:42;0.70;;;0.70;;
44438;SDS011;30145;48.874;10.186;2022-11-18T09:16:27;0.60;;;0.60;;
44438;SDS011;30145;48.874;10.186;2022-11-18T09:18:55;0.60;;;0.60;;
44438;SDS011;30145;48.874;10.186;2022-11-18T09:21:24;0.80;;;0.80;;
44438;SDS011;30145;48.874;10.186;2022-11-18T09:23:52;1.17;;;0.80;;
44438;SDS011;30145;48.874;10.186;2022-11-18T09:26:20;0.87;;;0.63;;
44438;SDS011;30145;48.874;10.186;2022-11-18T09:28:51;0.97;;;0.90;;
44438;SDS011;30145;48.874;10.186;2022-11-18T09:31:19;0.60;;;0.60;;
44438;SDS011;30145;48.874;10.186;2022-11-18T09:33:46;0.70;;;0.70;;
44438;SDS011;30145;48.874;10.186;2022-11-18T09:36:21;1.00;;;0.87;;
44438;SDS011;30145;48.874;10.186;2022-11-18T09:38:50;0.70;;;0.70;;
44438;SDS011;30145;48.874;10.186;2022-11-18T09:49:31;0.50;;;0.50;;
44438;SDS011;30145;48.874;10.186;2022-11-18T09:52:04;0.60;;;0.60;;
44438;SDS011;30145;48.874;10.186;2022-11-18T09:54:36;0.60;;;0.60;;
44438;SDS011;30145;48.874;10.186;2022-11-18T09:57:20;0.70;;;0.70;;
44438;SDS011;30145;48.874;10.186;2022-11-18T09:59:56;0.60;;;0.60;;
44438;SDS011;30145;48.874;10.186;2022-11-18T10:04:59;0.80;;;0.70;;
44438;SDS011;30145;48.874;10.186;2022-11-18T10:07:40;0.50;;;0.50;;
44438;SDS011;30145;48.874;10.186;2022-11-18T10:10:14;0.50;;;0.50;;
44438;SDS011;30145;48.874;10.186;2022-11-18T10:12:46;0.60;;;0.60;;
44438;SDS011;30145;48.874;10.186;2022-11-18T10:20:41;0.90;;;0.70;;
44438;SDS011;30145;48.874;10.186;2022-11-18T10:25:43;0.67;;;0.67;;
44438;SDS011;30145;48.874;10.186;2022-11-18T10:28:16;0.60;;;0.60;;
44438;SDS011;30145;48.874;10.186;2022-11-18T10:30:47;0.60;;;0.60;;
44438;SDS011;30145;48.874;10.186;2022-11-18T10:35:48;0.50;;;0.50;;
44438;SDS011;30145;48.874;10.186;2022-11-18T10:38:17;0.70;;;0.70;;
44438;SDS011;30145;48.874;10.186;2022-11-18T10:40:49;0.53;;;0.50;;
44438;SDS011;30145;48.874;10.186;2022-11-18T10:43:44;0.97;;;0.83;;
44438;SDS011;30145;48.874;10.186;2022-11-18T10:46:16;0.50;;;0.50;;
44438;SDS011;30145;48.874;10.186;2022-11-18T10:48:44;1.90;;;1.30;;
44438;SDS011;30145;48.874;10.186;2022-11-18T10:51:21;1.03;;;0.80;;
44438;SDS011;30145;48.874;10.186;2022-11-18T10:53:49;1.57;;;1.47;;
44438;SDS011;30145;48.874;10.186;2022-11-18T10:56:17;1.40;;;1.03;;
44438;SDS011;30145;48.874;10.186;2022-11-18T10:58:46;1.10;;;1.10;;
44438;SDS011;30145;48.874;10.186;2022-11-18T11:03:59;2.07;;;1.00;;
44438;SDS011;30145;48.874;10.186;2022-11-18T11:06:30;1.13;;;0.80;;
44438;SDS011;30145;48.874;10.186;2022-11-18T11:11:42;0.80;;;0.80;;
44438;SDS011;30145;48.874;10.186;2022-11-18T11:14:22;0.80;;;0.80;;
44438;SDS011;30145;48.874;10.186;2022-11-18T11:16:59;1.23;;;1.13;;
44438;SDS011;30145;48.874;10.186;2022-11-18T11:19:32;0.70;;;0.70;;
44438;SDS011;30145;48.874;10.186;2022-11-18T11:22:07;1.53;;;1.27;;
44438;SDS011;30145;48.874;10.186;2022-11-18T11:24:35;1.03;;;0.90;;
44438;SDS011;30145;48.874;10.186;2022-11-18T11:38:04;0.63;;;0.63;;
44438;SDS011;30145;48.874;10.186;2022-11-18T11:43:44;0.80;;;0.80;;
44438;SDS011;30145;48.874;10.186;2022-11-18T11:46:36;0.93;;;0.83;;
44438;SDS011;30145;48.874;10.186;2022-11-18T11:52:14;1.17;;;1.10;;
44438;SDS011;30145;48.874;10.186;2022-11-18T12:00:04;0.83;;;0.83;;
44438;SDS011;30145;48.874;10.186;2022-11-18T12:02:55;1.00;;;0.90;;
44438;SDS011;30145;48.874;10.186;2022-11-18T12:05:44;1.63;;;1.27;;
44438;SDS011;30145;48.874;10.186;2022-11-18T12:08:15;1.53;;;1.30;;
44438;SDS011;30145;48.874;10.186;2022-11-18T12:10:55;1.80;;;1.67;;
44438;SDS011;30145;48.874;10.186;2022-11-18T12:26:57;1.60;;;1.50;;
44438;SDS011;30145;48.874;10.186;2022-11-18T12:31:57;1.73;;;1.53;;
44438;SDS011;30145;48.874;10.186;2022-11-18T12:36:52;1.50;;;1.40;;
44438;SDS011;30145;48.874;10.186;2022-11-18T12:42:32;2.10;;;1.90;;
44438;SDS011;30145;48.874;10.186;2022-11-18T12:50:53;1.90;;;1.80;;
44438;SDS011;30145;48.874;10.186;2022-11-18T12:58:43;3.23;;;3.00;;
44438;SDS011;30145;48.874;10.186;2022-11-18T13:01:22;3.33;;;2.30;;
44438;SDS011;30145;48.874;10.186;2022-11-18T13:04:04;2.73;;;2.53;;
44438;SDS011;30145;48.874;10.186;2022-11-18T13:06:41;4.10;;;3.70;;
44438;SDS011;30145;48.874;10.186;2022-11-18T13:09:17;3.63;;;3.30;;
44438;SDS011;30145;48.874;10.186;2022-11-18T13:11:49;2.93;;;2.70;;
44438;SDS011;30145;48.874;10.186;2022-11-18T13:14:29;3.27;;;2.87;;
44438;SDS011;30145;48.874;10.186;2022-11-18T13:17:30;2.13;;;2.03;;
44438;SDS011;30145;48.874;10.186;2022-11-18T13:23:00;3.30;;;2.97;;
44438;SDS011;30145;48.874;10.186;2022-11-18T13:25:46;4.40;;;2.73;;
44438;SDS011;30145;48.874;10.186;2022-11-18T13:30:53;3.43;;;3.13;;
44438;SDS011;30145;48.874;10.186;2022-11-18T13:33:26;4.30;;;2.80;;
44438;SDS011;30145;48.874;10.186;2022-11-18T13:35:53;2.93;;;2.70;;
44438;SDS011;30145;48.874;10.186;2022-11-18T13:38:21;3.53;;;3.23;;
44438;SDS011;30145;48.874;10.186;2022-11-18T13:40:53;6.57;;;3.50;;
44438;SDS011;30145;48.874;10.186;2022-11-18T13:43:38;4.03;;;3.47;;
44438;SDS011;30145;48.874;10.186;2022-11-18T13:46:07;2.30;;;2.10;;
44438;SDS011;30145;48.874;10.186;2022-11-18T13:48:45;2.93;;;2.73;;
44438;SDS011;30145;48.874;10.186;2022-11-18T13:51:18;5.73;;;3.57;;
44438;SDS011;30145;48.874;10.186;2022-11-18T13:53:46;3.20;;;2.60;;
44438;SDS011;30145;48.874;10.186;2022-11-18T13:56:18;2.80;;;2.20;;
44438;SDS011;30145;48.874;10.186;2022-11-18T14:01:36;2.40;;;2.20;;
44438;SDS011;30145;48.874;10.186;2022-11-18T14:04:04;2.90;;;2.50;;
44438;SDS011;30145;48.874;10.186;2022-11-18T14:06:33;3.23;;;1.90;;
44438;SDS011;30145;48.874;10.186;2022-11-18T14:09:18;3.87;;;2.63;;
44438;SDS011;30145;48.874;10.186;2022-11-18T14:14:40;2.93;;;2.30;;
44438;SDS011;30145;48.874;10.186;2022-11-18T14:19:43;4.57;;;2.20;;
44438;SDS011;30145;48.874;10.186;2022-11-18T14:22:17;2.97;;;2.67;;
44438;SDS011;30145;48.874;10.186;2022-11-18T14:25:21;4.53;;;2.57;;
44438;SDS011;30145;48.874;10.186;2022-11-18T14:27:48;3.23;;;2.73;;
44438;SDS011;30145;48.874;10.186;2022-11-18T14:30:26;3.13;;;2.50;;
44438;SDS011;30145;48.874;10.186;2022-11-18T14:33:41;2.07;;;1.87;;
44438;SDS011;30145;48.874;10.186;2022-11-18T14:41:24;1.63;;;1.47;;
44438;SDS011;30145;48.874;10.186;2022-11-18T14:44:10;2.37;;;1.30;;
44438;SDS011;30145;48.874;10.186;2022-11-18T14:46:39;3.17;;;1.70;;
44438;SDS011;30145;48.874;10.186;2022-11-18T14:49:16;2.03;;;1.57;;
44438;SDS011;30145;48.874;10.186;2022-11-18T14:51:44;2.83;;;1.87;;
44438;SDS011;30145;48.874;10.186;2022-11-18T14:54:14;2.63;;;1.53;;
44438;SDS011;30145;48.874;10.186;2022-11-18T14:56:45;4.57;;;2.90;;
44438;SDS011;30145;48.874;10.186;2022-11-18T14:59:14;2.97;;;1.63;;
44438;SDS011;30145;48.874;10.186;2022-11-18T15:01:43;2.77;;;2.17;;
44438;SDS011;30145;48.874;10.186;2022-11-18T15:04:10;2.13;;;1.60;;
44438;SDS011;30145;48.874;10.186;2022-11-18T15:06:38;2.93;;;1.40;;
44438;SDS011;30145;48.874;10.186;2022-11-18T15:09:06;2.90;;;1.77;;
44438;SDS011;30145;48.874;10.186;2022-11-18T15:11:33;1.50;;;1.30;;
44438;SDS011;30145;48.874;10.186;2022-11-18T15:14:01;3.53;;;2.20;;
44438;SDS011;30145;48.874;10.186;2022-11-18T15:16:29;5.90;;;3.50;;
44438;SDS011;30145;48.874;10.186;2022-11-18T15:18:58;4.00;;;3.20;;
44438;SDS011;30145;48.874;10.186;2022-11-18T15:21:26;2.13;;;1.90;;
44438;SDS011;30145;48.874;10.186;2022-11-18T15:23:53;4.00;;;1.90;;
44438;SDS011;30145;48.874;10.186;2022-11-18T15:26:25;3.90;;;2.80;;
44438;SDS011;30145;48.874;10.186;2022-11-18T15:28:54;4.03;;;3.10;;
44438;SDS011;30145;48.874;10.186;2022-11-18T15:31:22;5.53;;;2.53;;
44438;SDS011;30145;48.874;10.186;2022-11-18T15:33:50;5.43;;;2.20;;
44438;SDS011;30145;48.874;10.186;2022-11-18T15:36:18;2.20;;;1.87;;
44438;SDS011;30145;48.874;10.186;2022-11-18T15:38:49;3.00;;;1.70;;
44438;SDS011;30145;48.874;10.186;2022-11-18T15:41:18;3.20;;;2.63;;
44438;SDS011;30145;48.874;10.186;2022-11-18T15:43:52;4.43;;;2.40;;
44438;SDS011;30145;48.874;10.186;2022-11-18T15:46:21;6.30;;;2.90;;
44438;SDS011;30145;48.874;10.186;2022-11-18T15:48:53;5.80;;;3.77;;
44438;SDS011;30145;48.874;10.186;2022-11-18T15:51:21;5.63;;;3.00;;
44438;SDS011;30145;48.874;10.186;2022-11-18T15:53:48;4.10;;;3.53;;
44438;SDS011;30145;48.874;10.186;2022-11-18T16:01:33;7.27;;;3.10;;
44438;SDS011;30145;48.874;10.186;2022-11-18T16:04:02;4.67;;;2.30;;
44438;SDS011;30145;48.874;10.186;2022-11-18T16:06:30;3.50;;;2.50;;
44438;SDS011;30145;48.874;10.186;2022-11-18T16:08:57;2.60;;;1.87;;
44438;SDS011;30145;48.874;10.186;2022-11-18T16:11:25;3.40;;;2.40;;
44438;SDS011;30145;48.874;10.186;2022-11-18T16:14:12;3.70;;;3.00;;
44438;SDS011;30145;48.874;10.186;2022-11-18T16:16:40;4.40;;;2.97;;
44438;SDS011;30145;48.874;10.186;2022-11-18T16:19:09;3.73;;;2.50;;
44438;SDS011;30145;48.874;10.186;2022-11-18T16:21:39;3.90;;;2.80;;
44438;SDS011;30145;48.874;10.186;2022-11-18T16:24:08;2.90;;;2.37;;
44438;SDS011;30145;48.874;10.186;2022-11-18T16:26:37;3.17;;;2.60;;
44438;SDS011;30145;48.874;10.186;2022-11-18T16:29:04;4.80;;;2.83;;
44438;SDS011;30145;48.874;10.186;2022-11-18T16:31:33;2.43;;;2.13;;
44438;SDS011;30145;48.874;10.186;2022-11-18T16:36:34;6.97;;;2.40;;
44438;SDS011;30145;48.874;10.186;2022-11-18T16:39:04;7.00;;;2.40;;
44438;SDS011;30145;48.874;10.186;2022-11-18T16:41:36;4.27;;;3.10;;
44438;SDS011;30145;48.874;10.186;2022-11-18T16:44:05;6.27;;;2.93;;
44438;SDS011;30145;48.874;10.186;2022-11-18T16:46:34;5.20;;;2.33;;
44438;SDS011;30145;48.874;10.186;2022-11-18T16:49:03;2.57;;;2.20;;
44438;SDS011;30145;48.874;10.186;2022-11-18T16:51:31;3.27;;;2.27;;
44438;SDS011;30145;48.874;10.186;2022-11-18T16:54:00;3.20;;;2.07;;
44438;SDS011;30145;48.874;10.186;2022-11-18T16:56:30;6.00;;;2.53;;
44438;SDS011;30145;48.874;10.186;2022-11-18T16:59:02;5.73;;;2.77;;
44438;SDS011;30145;48.874;10.186;2022-11-18T17:01:31;2.87;;;1.93;;
44438;SDS011;30145;48.874;10.186;2022-11-18T17:03:59;5.13;;;2.37;;